Aviation Digital Data Service (ADDS)

Output produced by METARs form (0102 UTC 21 October 2017)
found at http://www.aviationweather.gov/adds/metars/
 
METAR text: KPHD 210053Z AUTO 00000KT 10SM CLR 12/07 A3024 RMK AO2 SLP241 T01170067
Conditions at: KPHD (NEW PHILADELPHIA, OH, US) observed 0053 UTC 21 October 2017
Temperature: 11.7°C (53°F)
Dewpoint: 6.7°C (44°F) [RH = 71%]
Pressure (altimeter): 30.24 inches Hg (1024.1 mb)
[Sea-level pressure: 1024.1 mb]
Winds: calm
Visibility: 10 or more miles (16+ km)
Ceiling: at least 12,000 feet AGL
Clouds: sky clear below 12,000 feet AGL
Weather: automated observation with no human augmentation;
there may or may not be significant weather present at this time

METAR text: KPHD 202353Z AUTO 12003KT 10SM CLR 13/07 A3023 RMK AO2 SLP241 T01330067 10244 20133 55003
Conditions at: KPHD (NEW PHILADELPHIA, OH, US) observed 2353 UTC 20 October 2017
Temperature: 13.3°C (56°F)
Dewpoint: 6.7°C (44°F) [RH = 64%]
Pressure (altimeter): 30.23 inches Hg (1023.8 mb)
[Sea-level pressure: 1024.1 mb]
Winds: from the ESE (120 degrees) at 3 MPH (3 knots; 1.6 m/s)
Visibility: 10 or more miles (16+ km)
Ceiling: at least 12,000 feet AGL
Clouds: sky clear below 12,000 feet AGL
Weather: automated observation with no human augmentation;
there may or may not be significant weather present at this time

METAR text: KPHD 202253Z AUTO 00000KT 10SM CLR 16/07 A3022 RMK AO2 SLP235 T01610067
Conditions at: KPHD (NEW PHILADELPHIA, OH, US) observed 2253 UTC 20 October 2017
Temperature: 16.1°C (61°F)
Dewpoint: 6.7°C (44°F) [RH = 54%]
Pressure (altimeter): 30.22 inches Hg (1023.5 mb)
[Sea-level pressure: 1023.5 mb]
Winds: calm
Visibility: 10 or more miles (16+ km)
Ceiling: at least 12,000 feet AGL
Clouds: sky clear below 12,000 feet AGL
Weather: automated observation with no human augmentation;
there may or may not be significant weather present at this time

METAR text: KPHD 202153Z AUTO 00000KT 10SM CLR 22/06 A3022 RMK AO2 SLP234 T02170061
Conditions at: KPHD (NEW PHILADELPHIA, OH, US) observed 2153 UTC 20 October 2017
Temperature: 21.7°C (71°F)
Dewpoint: 6.1°C (43°F) [RH = 36%]
Pressure (altimeter): 30.22 inches Hg (1023.5 mb)
[Sea-level pressure: 1023.4 mb]
Winds: calm
Visibility: 10 or more miles (16+ km)
Ceiling: at least 12,000 feet AGL
Clouds: sky clear below 12,000 feet AGL
Weather: automated observation with no human augmentation;
there may or may not be significant weather present at this time

METAR text: KPHD 202053Z AUTO 00000KT 10SM CLR 23/03 A3024 RMK AO2 SLP240 T02330033 56010
Conditions at: KPHD (NEW PHILADELPHIA, OH, US) observed 2053 UTC 20 October 2017
Temperature: 23.3°C (74°F)
Dewpoint: 3.3°C (38°F) [RH = 27%]
Pressure (altimeter): 30.24 inches Hg (1024.1 mb)
[Sea-level pressure: 1024.0 mb]
Winds: calm
Visibility: 10 or more miles (16+ km)
Ceiling: at least 12,000 feet AGL
Clouds: sky clear below 12,000 feet AGL
Weather: automated observation with no human augmentation;
there may or may not be significant weather present at this time

METAR text: KPHD 201953Z AUTO VRB03KT 10SM CLR 24/03 A3025 RMK AO2 SLP241 T02390028
Conditions at: KPHD (NEW PHILADELPHIA, OH, US) observed 1953 UTC 20 October 2017
Temperature: 23.9°C (75°F)
Dewpoint: 2.8°C (37°F) [RH = 25%]
Pressure (altimeter): 30.25 inches Hg (1024.5 mb)
[Sea-level pressure: 1024.1 mb]
Winds: variable direction winds at 3 MPH (3 knots; 1.6 m/s)
Visibility: 10 or more miles (16+ km)
Ceiling: at least 12,000 feet AGL
Clouds: sky clear below 12,000 feet AGL
Weather: automated observation with no human augmentation;
there may or may not be significant weather present at this time

METAR text: KPHD 201853Z AUTO 00000KT 10SM CLR 23/03 A3026 RMK AO2 SLP246 T02280033
Conditions at: KPHD (NEW PHILADELPHIA, OH, US) observed 1853 UTC 20 October 2017
Temperature: 22.8°C (73°F)
Dewpoint: 3.3°C (38°F) [RH = 28%]
Pressure (altimeter): 30.26 inches Hg (1024.8 mb)
[Sea-level pressure: 1024.6 mb]
Winds: calm
Visibility: 10 or more miles (16+ km)
Ceiling: at least 12,000 feet AGL
Clouds: sky clear below 12,000 feet AGL
Weather: automated observation with no human augmentation;
there may or may not be significant weather present at this time

METAR text: KPHD 201753Z AUTO 15004KT 10SM CLR 22/05 A3027 RMK AO2 SLP251 T02170050 10222 20056 58021
Conditions at: KPHD (NEW PHILADELPHIA, OH, US) observed 1753 UTC 20 October 2017
Temperature: 21.7°C (71°F)
Dewpoint: 5.0°C (41°F) [RH = 34%]
Pressure (altimeter): 30.27 inches Hg (1025.1 mb)
[Sea-level pressure: 1025.1 mb]
Winds: from the SSE (150 degrees) at 5 MPH (4 knots; 2.1 m/s)
Visibility: 10 or more miles (16+ km)
Ceiling: at least 12,000 feet AGL
Clouds: sky clear below 12,000 feet AGL
Weather: automated observation with no human augmentation;
there may or may not be significant weather present at this time

METAR text: KPHD 201653Z AUTO 16005KT 10SM CLR 21/08 A3030 RMK AO2 SLP261 T02060078
Conditions at: KPHD (NEW PHILADELPHIA, OH, US) observed 1653 UTC 20 October 2017
Temperature: 20.6°C (69°F)
Dewpoint: 7.8°C (46°F) [RH = 44%]
Pressure (altimeter): 30.30 inches Hg (1026.2 mb)
[Sea-level pressure: 1026.1 mb]
Winds: from the SSE (160 degrees) at 6 MPH (5 knots; 2.6 m/s)
Visibility: 10 or more miles (16+ km)
Ceiling: at least 12,000 feet AGL
Clouds: sky clear below 12,000 feet AGL
Weather: automated observation with no human augmentation;
there may or may not be significant weather present at this time

METAR text: KPHD 201553Z AUTO 00000KT 10SM CLR 19/09 A3032 RMK AO2 SLP266 T01940089
Conditions at: KPHD (NEW PHILADELPHIA, OH, US) observed 1553 UTC 20 October 2017
Temperature: 19.4°C (67°F)
Dewpoint: 8.9°C (48°F) [RH = 51%]
Pressure (altimeter): 30.32 inches Hg (1026.8 mb)
[Sea-level pressure: 1026.6 mb]
Winds: calm
Visibility: 10 or more miles (16+ km)
Ceiling: at least 12,000 feet AGL
Clouds: sky clear below 12,000 feet AGL
Weather: automated observation with no human augmentation;
there may or may not be significant weather present at this time

METAR text: KPHD 201453Z AUTO 00000KT 10SM CLR 15/11 A3034 RMK AO2 SLP272 T01500106 50012
Conditions at: KPHD (NEW PHILADELPHIA, OH, US) observed 1453 UTC 20 October 2017
Temperature: 15.0°C (59°F)
Dewpoint: 10.6°C (51°F) [RH = 75%]
Pressure (altimeter): 30.34 inches Hg (1027.5 mb)
[Sea-level pressure: 1027.2 mb]
Winds: calm
Visibility: 10 or more miles (16+ km)
Ceiling: at least 12,000 feet AGL
Clouds: sky clear below 12,000 feet AGL
Weather: automated observation with no human augmentation;
there may or may not be significant weather present at this time

METAR text: KPHD 201353Z AUTO 00000KT 5SM BR CLR 11/09 A3034 RMK AO2 SLP273 T01060094
Conditions at: KPHD (NEW PHILADELPHIA, OH, US) observed 1353 UTC 20 October 2017
Temperature: 10.6°C (51°F)
Dewpoint: 9.4°C (49°F) [RH = 92%]
Pressure (altimeter): 30.34 inches Hg (1027.5 mb)
[Sea-level pressure: 1027.3 mb]
Winds: calm
Visibility: 5 miles (8 km)
Ceiling: at least 12,000 feet AGL
Clouds: sky clear below 12,000 feet AGL
Weather: BR  (mist)

METAR text: KPHD 201312Z AUTO 00000KT 4SM BR SCT001 09/08 A3033 RMK AO2 T00890083
Conditions at: KPHD (NEW PHILADELPHIA, OH, US) observed 1312 UTC 20 October 2017
Temperature: 8.9°C (48°F)
Dewpoint: 8.3°C (47°F) [RH = 96%]
Pressure (altimeter): 30.33 inches Hg (1027.2 mb)
Winds: calm
Visibility: 4 miles (6 km)
Ceiling: at least 12,000 feet AGL
Clouds: scattered clouds at 100 feet AGL
Weather: BR  (mist)

METAR text: KPHD 201304Z AUTO 00000KT 2SM BR BKN001 09/08 A3033 RMK AO2 T00890078
Conditions at: KPHD (NEW PHILADELPHIA, OH, US) observed 1304 UTC 20 October 2017
Temperature: 8.9°C (48°F)
Dewpoint: 7.8°C (46°F) [RH = 93%]
Pressure (altimeter): 30.33 inches Hg (1027.2 mb)
Winds: calm
Visibility: 2.00 miles (3.22 km)
Ceiling: 100 feet AGL
Clouds: broken clouds at 100 feet AGL
Weather: BR  (mist)

METAR text: KPHD 201253Z AUTO 00000KT 1SM BR VV001 08/07 A3032 RMK AO2 SLP269 T00780072
Conditions at: KPHD (NEW PHILADELPHIA, OH, US) observed 1253 UTC 20 October 2017
Temperature: 7.8°C (46°F)
Dewpoint: 7.2°C (45°F) [RH = 96%]
Pressure (altimeter): 30.32 inches Hg (1026.8 mb)
[Sea-level pressure: 1026.9 mb]
Winds: calm
Visibility: 1.00 miles (1.61 km)
Ceiling: indefinite ceiling with vertical visibility of 100 feet AGL
Clouds: obscured sky
Weather: BR  (mist)

METAR text: KPHD 201233Z AUTO 00000KT 3SM BR BKN002 07/06 A3031 RMK AO2 T00670061
Conditions at: KPHD (NEW PHILADELPHIA, OH, US) observed 1233 UTC 20 October 2017
Temperature: 6.7°C (44°F)
Dewpoint: 6.1°C (43°F) [RH = 96%]
Pressure (altimeter): 30.31 inches Hg (1026.5 mb)
Winds: calm
Visibility: 3 miles (5 km)
Ceiling: 200 feet AGL
Clouds: broken clouds at 200 feet AGL
Weather: BR  (mist)

METAR text: KPHD 201225Z AUTO 00000KT 1 1/4SM BR BKN002 06/06 A3031 RMK AO2 T00610056
Conditions at: KPHD (NEW PHILADELPHIA, OH, US) observed 1225 UTC 20 October 2017
Temperature: 6.1°C (43°F)
Dewpoint: 5.6°C (42°F) [RH = 97%]
Pressure (altimeter): 30.31 inches Hg (1026.5 mb)
Winds: calm
Visibility: 1.25 miles (2.01 km)
Ceiling: 200 feet AGL
Clouds: broken clouds at 200 feet AGL
Weather: BR  (mist)

METAR text: KPHD 201153Z AUTO 00000KT 1/2SM FG VV002 06/06 A3030 RMK AO2 SLP262 T00610056 10100 20056 52020
Conditions at: KPHD (NEW PHILADELPHIA, OH, US) observed 1153 UTC 20 October 2017
Temperature: 6.1°C (43°F)
Dewpoint: 5.6°C (42°F) [RH = 97%]
Pressure (altimeter): 30.30 inches Hg (1026.2 mb)
[Sea-level pressure: 1026.2 mb]
Winds: calm
Visibility: 0.50 miles (0.80 km)
Ceiling: indefinite ceiling with vertical visibility of 200 feet AGL
Clouds: obscured sky
Weather: FG  (fog)

METAR text: KPHD 201133Z AUTO 00000KT 3/4SM BR VV002 06/06 A3029 RMK AO2 VIS 1/2V1 3/4 T00610056
Conditions at: KPHD (NEW PHILADELPHIA, OH, US) observed 1133 UTC 20 October 2017
Temperature: 6.1°C (43°F)
Dewpoint: 5.6°C (42°F) [RH = 97%]
Pressure (altimeter): 30.29 inches Hg (1025.8 mb)
Winds: calm
Visibility: 0.75 miles (1.21 km)
Ceiling: indefinite ceiling with vertical visibility of 200 feet AGL
Clouds: obscured sky
Weather: BR  (mist)

METAR text: KPHD 201126Z AUTO 00000KT 1 3/4SM BR BKN001 06/06 A3029 RMK AO2 T00610056
Conditions at: KPHD (NEW PHILADELPHIA, OH, US) observed 1126 UTC 20 October 2017
Temperature: 6.1°C (43°F)
Dewpoint: 5.6°C (42°F) [RH = 97%]
Pressure (altimeter): 30.29 inches Hg (1025.8 mb)
Winds: calm
Visibility: 1.75 miles (2.82 km)
Ceiling: 100 feet AGL
Clouds: broken clouds at 100 feet AGL
Weather: BR  (mist)

METAR text: KPHD 201118Z AUTO 00000KT 4SM BR BKN001 06/06 A3029 RMK AO2 T00610056
Conditions at: KPHD (NEW PHILADELPHIA, OH, US) observed 1118 UTC 20 October 2017
Temperature: 6.1°C (43°F)
Dewpoint: 5.6°C (42°F) [RH = 97%]
Pressure (altimeter): 30.29 inches Hg (1025.8 mb)
Winds: calm
Visibility: 4 miles (6 km)
Ceiling: 100 feet AGL
Clouds: broken clouds at 100 feet AGL
Weather: BR  (mist)

METAR text: KPHD 201109Z AUTO 00000KT 8SM SCT001 06/06 A3029 RMK AO2 T00610056
Conditions at: KPHD (NEW PHILADELPHIA, OH, US) observed 1109 UTC 20 October 2017
Temperature: 6.1°C (43°F)
Dewpoint: 5.6°C (42°F) [RH = 97%]
Pressure (altimeter): 30.29 inches Hg (1025.8 mb)
Winds: calm
Visibility: 8 miles (13 km)
Ceiling: at least 12,000 feet AGL
Clouds: scattered clouds at 100 feet AGL
Weather: automated observation with no human augmentation;
there may or may not be significant weather present at this time

METAR text: KPHD 201053Z AUTO 00000KT 6SM BR CLR 07/05 A3028 RMK AO2 SLP254 T00670050
Conditions at: KPHD (NEW PHILADELPHIA, OH, US) observed 1053 UTC 20 October 2017
Temperature: 6.7°C (44°F)
Dewpoint: 5.0°C (41°F) [RH = 89%]
Pressure (altimeter): 30.28 inches Hg (1025.5 mb)
[Sea-level pressure: 1025.4 mb]
Winds: calm
Visibility: 6 miles (10 km)
Ceiling: at least 12,000 feet AGL
Clouds: sky clear below 12,000 feet AGL
Weather: BR  (mist)

METAR text: KPHD 201026Z AUTO 00000KT 7SM FEW002 07/06 A3027 RMK AO2 T00670056
Conditions at: KPHD (NEW PHILADELPHIA, OH, US) observed 1026 UTC 20 October 2017
Temperature: 6.7°C (44°F)
Dewpoint: 5.6°C (42°F) [RH = 93%]
Pressure (altimeter): 30.27 inches Hg (1025.1 mb)
Winds: calm
Visibility: 7 miles (11 km)
Ceiling: at least 12,000 feet AGL
Clouds: few clouds at 200 feet AGL
Weather: automated observation with no human augmentation;
there may or may not be significant weather present at this time

METAR text: KPHD 201016Z AUTO 00000KT 2SM BR SCT001 07/06 A3026 RMK AO2 T00720061
Conditions at: KPHD (NEW PHILADELPHIA, OH, US) observed 1016 UTC 20 October 2017
Temperature: 7.2°C (45°F)
Dewpoint: 6.1°C (43°F) [RH = 93%]
Pressure (altimeter): 30.26 inches Hg (1024.8 mb)
Winds: calm
Visibility: 2.00 miles (3.22 km)
Ceiling: at least 12,000 feet AGL
Clouds: scattered clouds at 100 feet AGL
Weather: BR  (mist)

METAR text: KPHD 201002Z AUTO 00000KT 9SM SCT002 07/06 A3026 RMK AO2 T00720061
Conditions at: KPHD (NEW PHILADELPHIA, OH, US) observed 1002 UTC 20 October 2017
Temperature: 7.2°C (45°F)
Dewpoint: 6.1°C (43°F) [RH = 93%]
Pressure (altimeter): 30.26 inches Hg (1024.8 mb)
Winds: calm
Visibility: 9 miles (14 km)
Ceiling: at least 12,000 feet AGL
Clouds: scattered clouds at 200 feet AGL
Weather: automated observation with no human augmentation;
there may or may not be significant weather present at this time

METAR text: KPHD 200953Z AUTO 00000KT 9SM BKN002 07/06 A3026 RMK AO2 SLP246 T00720061
Conditions at: KPHD (NEW PHILADELPHIA, OH, US) observed 0953 UTC 20 October 2017
Temperature: 7.2°C (45°F)
Dewpoint: 6.1°C (43°F) [RH = 93%]
Pressure (altimeter): 30.26 inches Hg (1024.8 mb)
[Sea-level pressure: 1024.6 mb]
Winds: calm
Visibility: 9 miles (14 km)
Ceiling: 200 feet AGL
Clouds: broken clouds at 200 feet AGL
Weather: automated observation with no human augmentation;
there may or may not be significant weather present at this time

METAR text: KPHD 200930Z AUTO 00000KT 4SM BR BKN001 07/07 A3025 RMK AO2 T00720067
Conditions at: KPHD (NEW PHILADELPHIA, OH, US) observed 0930 UTC 20 October 2017
Temperature: 7.2°C (45°F)
Dewpoint: 6.7°C (44°F) [RH = 97%]
Pressure (altimeter): 30.25 inches Hg (1024.5 mb)
Winds: calm
Visibility: 4 miles (6 km)
Ceiling: 100 feet AGL
Clouds: broken clouds at 100 feet AGL
Weather: BR  (mist)

METAR text: KPHD 200926Z AUTO 00000KT 2SM BR SCT001 07/07 A3025 RMK AO2 T00720067
Conditions at: KPHD (NEW PHILADELPHIA, OH, US) observed 0926 UTC 20 October 2017
Temperature: 7.2°C (45°F)
Dewpoint: 6.7°C (44°F) [RH = 97%]
Pressure (altimeter): 30.25 inches Hg (1024.5 mb)
Winds: calm
Visibility: 2.00 miles (3.22 km)
Ceiling: at least 12,000 feet AGL
Clouds: scattered clouds at 100 feet AGL
Weather: BR  (mist)

METAR text: KPHD 200917Z AUTO 00000KT 3SM BR CLR 08/07 A3025 RMK AO2 T00780067
Conditions at: KPHD (NEW PHILADELPHIA, OH, US) observed 0917 UTC 20 October 2017
Temperature: 7.8°C (46°F)
Dewpoint: 6.7°C (44°F) [RH = 93%]
Pressure (altimeter): 30.25 inches Hg (1024.5 mb)
Winds: calm
Visibility: 3 miles (5 km)
Ceiling: at least 12,000 feet AGL
Clouds: sky clear below 12,000 feet AGL
Weather: BR  (mist)

METAR text: KPHD 200909Z AUTO 00000KT 1 3/4SM BR CLR 07/07 A3024 RMK AO2 VIS 3/4V5 T00720067
Conditions at: KPHD (NEW PHILADELPHIA, OH, US) observed 0909 UTC 20 October 2017
Temperature: 7.2°C (45°F)
Dewpoint: 6.7°C (44°F) [RH = 97%]
Pressure (altimeter): 30.24 inches Hg (1024.1 mb)
Winds: calm
Visibility: 1.75 miles (2.82 km)
Ceiling: at least 12,000 feet AGL
Clouds: sky clear below 12,000 feet AGL
Weather: BR  (mist)

METAR text: KPHD 200853Z AUTO 00000KT 7SM CLR 08/07 A3024 RMK AO2 SLP239 T00780067 53007
Conditions at: KPHD (NEW PHILADELPHIA, OH, US) observed 0853 UTC 20 October 2017
Temperature: 7.8°C (46°F)
Dewpoint: 6.7°C (44°F) [RH = 93%]
Pressure (altimeter): 30.24 inches Hg (1024.1 mb)
[Sea-level pressure: 1023.9 mb]
Winds: calm
Visibility: 7 miles (11 km)
Ceiling: at least 12,000 feet AGL
Clouds: sky clear below 12,000 feet AGL
Weather: automated observation with no human augmentation;
there may or may not be significant weather present at this time

METAR text: KPHD 200753Z AUTO 00000KT 6SM BR CLR 08/08 A3023 RMK AO2 SLP238 T00830078
Conditions at: KPHD (NEW PHILADELPHIA, OH, US) observed 0753 UTC 20 October 2017
Temperature: 8.3°C (47°F)
Dewpoint: 7.8°C (46°F) [RH = 97%]
Pressure (altimeter): 30.23 inches Hg (1023.8 mb)
[Sea-level pressure: 1023.8 mb]
Winds: calm
Visibility: 6 miles (10 km)
Ceiling: at least 12,000 feet AGL
Clouds: sky clear below 12,000 feet AGL
Weather: BR  (mist)

METAR text: KPHD 200717Z AUTO 00000KT 4SM BR CLR 09/08 A3023 RMK AO2 T00890078
Conditions at: KPHD (NEW PHILADELPHIA, OH, US) observed 0717 UTC 20 October 2017
Temperature: 8.9°C (48°F)
Dewpoint: 7.8°C (46°F) [RH = 93%]
Pressure (altimeter): 30.23 inches Hg (1023.8 mb)
Winds: calm
Visibility: 4 miles (6 km)
Ceiling: at least 12,000 feet AGL
Clouds: sky clear below 12,000 feet AGL
Weather: BR  (mist)

METAR text: KPHD 200709Z AUTO 00000KT 1 3/4SM BR CLR 08/08 A3023 RMK AO2 T00830078
Conditions at: KPHD (NEW PHILADELPHIA, OH, US) observed 0709 UTC 20 October 2017
Temperature: 8.3°C (47°F)
Dewpoint: 7.8°C (46°F) [RH = 97%]
Pressure (altimeter): 30.23 inches Hg (1023.8 mb)
Winds: calm
Visibility: 1.75 miles (2.82 km)
Ceiling: at least 12,000 feet AGL
Clouds: sky clear below 12,000 feet AGL
Weather: BR  (mist)

METAR text: KPHD 200653Z AUTO 00000KT 10SM CLR 09/08 A3022 RMK AO2 SLP232 T00940083
Conditions at: KPHD (NEW PHILADELPHIA, OH, US) observed 0653 UTC 20 October 2017
Temperature: 9.4°C (49°F)
Dewpoint: 8.3°C (47°F) [RH = 93%]
Pressure (altimeter): 30.22 inches Hg (1023.5 mb)
[Sea-level pressure: 1023.2 mb]
Winds: calm
Visibility: 10 or more miles (16+ km)
Ceiling: at least 12,000 feet AGL
Clouds: sky clear below 12,000 feet AGL
Weather: automated observation with no human augmentation;
there may or may not be significant weather present at this time

METAR text: KPHD 200553Z AUTO 00000KT 10SM CLR 09/08 A3022 RMK AO2 SLP232 T00940083 10183 20089 50007
Conditions at: KPHD (NEW PHILADELPHIA, OH, US) observed 0553 UTC 20 October 2017
Temperature: 9.4°C (49°F)
Dewpoint: 8.3°C (47°F) [RH = 93%]
Pressure (altimeter): 30.22 inches Hg (1023.5 mb)
[Sea-level pressure: 1023.2 mb]
Winds: calm
Visibility: 10 or more miles (16+ km)
Ceiling: at least 12,000 feet AGL
Clouds: sky clear below 12,000 feet AGL
Weather: automated observation with no human augmentation;
there may or may not be significant weather present at this time

METAR text: KPHD 200453Z AUTO 11003KT 10SM CLR 11/08 A3022 RMK AO2 SLP232 T01060083 402330044
Conditions at: KPHD (NEW PHILADELPHIA, OH, US) observed 0453 UTC 20 October 2017
Temperature: 10.6°C (51°F)
Dewpoint: 8.3°C (47°F) [RH = 86%]
Pressure (altimeter): 30.22 inches Hg (1023.5 mb)
[Sea-level pressure: 1023.2 mb]
Winds: from the ESE (110 degrees) at 3 MPH (3 knots; 1.6 m/s)
Visibility: 10 or more miles (16+ km)
Ceiling: at least 12,000 feet AGL
Clouds: sky clear below 12,000 feet AGL
Weather: automated observation with no human augmentation;
there may or may not be significant weather present at this time

METAR text: KPHD 200353Z AUTO 00000KT 10SM CLR 12/09 A3021 RMK AO2 SLP228 T01220094
Conditions at: KPHD (NEW PHILADELPHIA, OH, US) observed 0353 UTC 20 October 2017
Temperature: 12.2°C (54°F)
Dewpoint: 9.4°C (49°F) [RH = 83%]
Pressure (altimeter): 30.21 inches Hg (1023.1 mb)
[Sea-level pressure: 1022.8 mb]
Winds: calm
Visibility: 10 or more miles (16+ km)
Ceiling: at least 12,000 feet AGL
Clouds: sky clear below 12,000 feet AGL
Weather: automated observation with no human augmentation;
there may or may not be significant weather present at this time

METAR text: KPHD 200253Z AUTO 11003KT 10SM CLR 13/09 A3020 RMK AO2 SLP225 T01330094 53006
Conditions at: KPHD (NEW PHILADELPHIA, OH, US) observed 0253 UTC 20 October 2017
Temperature: 13.3°C (56°F)
Dewpoint: 9.4°C (49°F) [RH = 77%]
Pressure (altimeter): 30.20 inches Hg (1022.8 mb)
[Sea-level pressure: 1022.5 mb]
Winds: from the ESE (110 degrees) at 3 MPH (3 knots; 1.6 m/s)
Visibility: 10 or more miles (16+ km)
Ceiling: at least 12,000 feet AGL
Clouds: sky clear below 12,000 feet AGL
Weather: automated observation with no human augmentation;
there may or may not be significant weather present at this time

METAR text: KPHD 200153Z AUTO 00000KT 10SM CLR 18/09 A3019 RMK AO2 SLP221 T01780094
Conditions at: KPHD (NEW PHILADELPHIA, OH, US) observed 0153 UTC 20 October 2017
Temperature: 17.8°C (64°F)
Dewpoint: 9.4°C (49°F) [RH = 58%]
Pressure (altimeter): 30.19 inches Hg (1022.4 mb)
[Sea-level pressure: 1022.1 mb]
Winds: calm
Visibility: 10 or more miles (16+ km)
Ceiling: at least 12,000 feet AGL
Clouds: sky clear below 12,000 feet AGL
Weather: automated observation with no human augmentation;
there may or may not be significant weather present at this time